Time;durP1;ratioP1;P1;durP2;ratioP2;P2;SDS_P1;SDS_P2;PMS_P1;PMS_P2;Temp;Humidity;BMP_temperature;BMP_pressure;BME280_temperature;BME280_humidity;BME280_pressure;Samples;Min_cycle;Max_cycle;Signal;HPM_P1;HPM_P2
2022/12/09 00:01:04;;;;;;;;;;;3.00;99.90;;;;;;5092404;28;20374;-42
2022/12/09 00:03:29;;;;;;;;;;;3.00;99.90;;;;;;5093226;28;20404;-40
2022/12/09 00:05:54;;;;;;;;;;;3.10;99.90;;;;;;5093198;28;19912;-40
2022/12/09 00:08:20;;;;;;;;;;;3.10;99.90;;;;;;5102769;28;20346;-45
2022/12/09 00:10:45;;;;;;;;;;;3.10;99.90;;;;;;5111612;28;19924;-41
2022/12/09 00:13:11;;;;;;;;;;;3.10;99.90;;;;;;5113731;28;19968;-40
2022/12/09 00:15:42;;;;;;;;;;;3.10;99.90;;;;;;5112692;28;20277;-40
2022/12/09 00:18:08;;;;;;;;;;;3.10;99.90;;;;;;5098117;28;19966;-43
2022/12/09 00:20:34;;;;;;;;;;;3.10;99.90;;;;;;5092363;28;19940;-43
2022/12/09 00:23:00;;;;;;;;;;;3.10;99.90;;;;;;5092721;28;20464;-40
2022/12/09 00:25:25;;;;;;;;;;;3.10;99.90;;;;;;5093037;28;19915;-40
2022/12/09 00:27:50;;;;;;;;;;;3.10;99.90;;;;;;5104269;28;20000;-40
2022/12/09 00:30:16;;;;;;;;;;;3.10;99.90;;;;;;5092909;28;20290;-43
2022/12/09 00:32:41;;;;;;;;;;;3.10;99.90;;;;;;5092871;28;19908;-40
2022/12/09 00:35:07;;;;;;;;;;;3.10;99.90;;;;;;5097886;28;20366;-41
2022/12/09 00:37:33;;;;;;;;;;;3.10;99.90;;;;;;5112924;28;19954;-40
2022/12/09 00:39:58;;;;;;;;;;;3.00;99.90;;;;;;5105296;28;19915;-41
2022/12/09 00:42:24;;;;;;;;;;;3.00;99.90;;;;;;5100866;28;19919;-39
2022/12/09 00:44:49;;;;;;;;;;;2.90;99.90;;;;;;5095888;28;19912;-40
2022/12/09 00:47:15;;;;;;;;;;;2.90;99.90;;;;;;5113052;28;19998;-41
2022/12/09 00:49:40;;;;;;;;;;;2.90;99.90;;;;;;5112224;28;20010;-41
2022/12/09 00:52:06;;;;;;;;;;;2.90;99.90;;;;;;5113075;28;19933;-41
2022/12/09 00:54:31;;;;;;;;;;;2.90;99.90;;;;;;5112466;28;19995;-44
2022/12/09 00:56:57;;;;;;;;;;;2.80;99.90;;;;;;5091749;28;19965;-41
2022/12/09 00:59:22;;;;;;;;;;;2.80;99.90;;;;;;5092569;28;19961;-41
2022/12/09 01:01:48;;;;;;;;;;;2.80;99.90;;;;;;5092519;28;19908;-42
2022/12/09 01:04:16;;;;;;;;;;;2.80;99.90;;;;;;5091890;28;19958;-39
2022/12/09 01:06:41;;;;;;;;;;;2.80;99.90;;;;;;5109870;28;20290;-42
2022/12/09 01:09:07;;;;;;;;;;;2.80;99.90;;;;;;5112798;28;19916;-39
2022/12/09 01:11:32;;;;;;;;;;;2.80;99.90;;;;;;5111794;28;20361;-39
2022/12/09 01:13:59;;;;;;;;;;;2.80;99.90;;;;;;5103124;28;19916;-44
2022/12/09 01:16:26;;;;;;;;;;;2.80;99.90;;;;;;5096506;28;19912;-40
2022/12/09 01:18:52;;;;;;;;;;;2.70;99.90;;;;;;5095562;28;19915;-40
2022/12/09 01:21:17;;;;;;;;;;;2.70;99.90;;;;;;5096509;28;19915;-40
2022/12/09 01:23:43;;;;;;;;;;;2.70;99.90;;;;;;5089992;28;20291;-40
2022/12/09 01:26:09;;;;;;;;;;;2.70;99.90;;;;;;5075758;28;19918;-40
2022/12/09 01:28:35;;;;;;;;;;;2.70;99.90;;;;;;5075838;28;20019;-39
2022/12/09 01:31:05;;;;;;;;;;;2.70;99.90;;;;;;5074731;28;19912;-40
2022/12/09 01:33:30;;;;;;;;;;;2.60;99.90;;;;;;5078982;28;19966;-40
2022/12/09 01:35:56;;;;;;;;;;;2.60;99.90;;;;;;5095960;28;20282;-43
2022/12/09 01:38:21;;;;;;;;;;;2.60;99.90;;;;;;5094903;28;20333;-41
2022/12/09 01:40:47;;;;;;;;;;;2.60;99.90;;;;;;5095879;28;19908;-40
2022/12/09 01:43:17;;;;;;;;;;;2.60;99.90;;;;;;5095003;28;19908;-40
2022/12/09 01:45:42;;;;;;;;;;;2.60;99.90;;;;;;5074837;28;19916;-39
2022/12/09 01:48:10;;;;;;;;;;;2.60;99.90;;;;;;5075409;28;19921;-42
2022/12/09 01:50:36;;;;;;;;;;;2.60;99.90;;;;;;5075500;28;19924;-40
2022/12/09 01:53:02;;;;;;;;;;;2.60;99.90;;;;;;5074701;28;19974;-43
2022/12/09 01:55:28;;;;;;;;;;;2.50;99.90;;;;;;5080613;28;19935;-42
2022/12/09 01:57:53;;;;;;;;;;;2.50;99.90;;;;;;5075519;28;19908;-40
2022/12/09 02:00:19;;;;;;;;;;;2.40;99.90;;;;;;5074648;28;20370;-41
2022/12/09 02:02:46;;;;;;;;;;;2.40;99.90;;;;;;5075327;28;19912;-40
2022/12/09 02:05:12;;;;;;;;;;;2.30;99.90;;;;;;5091973;28;20362;-45
2022/12/09 02:07:37;;;;;;;;;;;2.20;99.90;;;;;;5094568;28;20011;-42
2022/12/09 02:10:07;;;;;;;;;;;2.10;99.90;;;;;;5095439;28;20037;-41
2022/12/09 02:12:39;;;;;;;;;;;2.10;99.90;;;;;;5094120;28;19963;-40
2022/12/09 02:15:08;;;;;;;;;;;2.00;99.90;;;;;;5108256;28;19911;-41
2022/12/09 02:17:38;;;;;;;;;;;2.00;99.90;;;;;;5115748;28;19912;-45
2022/12/09 02:20:03;;;;;;;;;;;1.90;99.90;;;;;;5114940;28;19960;-41
2022/12/09 02:22:31;;;;;;;;;;;1.90;99.90;;;;;;5115579;28;19925;-41
2022/12/09 02:24:59;;;;;;;;;;;1.80;99.90;;;;;;5100584;28;20362;-39
2022/12/09 02:27:37;;;;;;;;;;;1.80;99.90;;;;;;5093123;28;19964;-40
2022/12/09 02:30:13;;;;;;;;;;;1.90;99.90;;;;;;5094979;28;19953;-40
2022/12/09 02:32:47;;;;;;;;;;;1.90;99.90;;;;;;5094953;28;19916;-41
2022/12/09 02:35:17;;;;;;;;;;;2.00;99.90;;;;;;5102001;28;20383;-40
2022/12/09 02:38:01;;;;;;;;;;;2.00;99.90;;;;;;5115203;28;20438;-41
2022/12/09 02:40:32;;;;;;;;;;;2.00;99.90;;;;;;5113808;28;19908;-40
2022/12/09 02:42:59;;;;;;;;;;;2.10;99.90;;;;;;5102596;28;19942;-44
2022/12/09 02:45:26;;;;;;;;;;;2.10;99.90;;;;;;5094800;28;19912;-41
2022/12/09 02:47:53;;;;;;;;;;;2.10;99.90;;;;;;5094614;28;19924;-41
2022/12/09 02:50:21;;;;;;;;;;;2.10;99.90;;;;;;5093940;28;19908;-41
2022/12/09 02:52:47;;;;;;;;;;;2.10;99.90;;;;;;5103679;28;19919;-39
2022/12/09 02:55:14;;;;;;;;;;;2.10;99.90;;;;;;5114309;28;20037;-41
2022/12/09 02:57:39;;;;;;;;;;;2.10;99.90;;;;;;5095135;28;19908;-40
2022/12/09 03:00:05;;;;;;;;;;;2.00;99.90;;;;;;5094359;28;19978;-41
2022/12/09 03:02:39;;;;;;;;;;;2.00;99.90;;;;;;5094774;28;20015;-41
2022/12/09 03:05:23;;;;;;;;;;;2.00;99.90;;;;;;5094289;28;20416;-40
2022/12/09 03:08:11;;;;;;;;;;;2.00;99.90;;;;;;5094225;28;19912;-40
2022/12/09 03:10:46;;;;;;;;;;;2.00;99.90;;;;;;5090360;28;20283;-41
2022/12/09 03:13:14;;;;;;;;;;;2.00;99.90;;;;;;5085716;28;19913;-40
2022/12/09 03:15:43;;;;;;;;;;;2.00;99.90;;;;;;5094077;28;20359;-40
2022/12/09 03:18:10;;;;;;;;;;;2.00;99.90;;;;;;5093336;28;19920;-39
2022/12/09 03:20:38;;;;;;;;;;;2.00;99.90;;;;;;5094362;28;19930;-41
2022/12/09 03:23:04;;;;;;;;;;;2.00;99.90;;;;;;5092018;28;20283;-40
2022/12/09 03:25:32;;;;;;;;;;;2.00;99.90;;;;;;5089536;28;19916;-40
2022/12/09 03:28:02;;;;;;;;;;;2.00;99.90;;;;;;5073415;28;20346;-41
2022/12/09 03:30:32;;;;;;;;;;;2.00;99.90;;;;;;5072871;28;20363;-41
2022/12/09 03:32:58;;;;;;;;;;;2.00;99.90;;;;;;5083045;28;20275;-41
2022/12/09 03:35:37;;;;;;;;;;;2.00;99.90;;;;;;5093789;28;19908;-40
2022/12/09 03:38:04;;;;;;;;;;;2.00;99.90;;;;;;5092601;28;19908;-41
2022/12/09 03:40:30;;;;;;;;;;;2.00;99.90;;;;;;5093779;28;19909;-40
2022/12/09 03:43:11;;;;;;;;;;;2.00;99.90;;;;;;5083666;28;20284;-40
2022/12/09 03:45:38;;;;;;;;;;;1.90;99.90;;;;;;5072426;28;19909;-40
2022/12/09 03:48:04;;;;;;;;;;;1.90;99.90;;;;;;5073061;28;19916;-44
2022/12/09 03:50:32;;;;;;;;;;;1.90;99.90;;;;;;5073196;28;19916;-41
2022/12/09 03:53:03;;;;;;;;;;;1.80;99.90;;;;;;5081598;28;19916;-39
2022/12/09 03:55:34;;;;;;;;;;;1.80;99.90;;;;;;5093428;28;19915;-40
2022/12/09 03:58:02;;;;;;;;;;;1.80;99.90;;;;;;5080539;28;19908;-42
2022/12/09 04:00:29;;;;;;;;;;;1.80;99.90;;;;;;5088971;28;19920;-40
2022/12/09 04:02:54;;;;;;;;;;;1.70;99.90;;;;;;5092882;28;19915;-42
2022/12/09 04:05:19;;;;;;;;;;;1.70;99.90;;;;;;5093295;28;20286;-41
2022/12/09 04:07:45;;;;;;;;;;;1.60;99.90;;;;;;5092346;28;19958;-40
2022/12/09 04:10:10;;;;;;;;;;;1.60;99.90;;;;;;5078636;28;19919;-41
2022/12/09 04:12:36;;;;;;;;;;;1.60;99.90;;;;;;5071894;28;19921;-43
2022/12/09 04:15:01;;;;;;;;;;;1.60;99.90;;;;;;5072725;28;19909;-40
2022/12/09 04:17:27;;;;;;;;;;;1.60;99.90;;;;;;5072743;28;19923;-40
2022/12/09 04:19:52;;;;;;;;;;;1.70;99.90;;;;;;5080797;28;19919;-40
2022/12/09 04:22:18;;;;;;;;;;;1.70;99.90;;;;;;5093227;28;19908;-43
2022/12/09 04:24:43;;;;;;;;;;;1.70;99.90;;;;;;5092949;28;19908;-40
2022/12/09 04:27:11;;;;;;;;;;;1.70;99.90;;;;;;5091990;28;20358;-40
2022/12/09 04:29:38;;;;;;;;;;;1.70;99.90;;;;;;5087792;28;19961;-40
2022/12/09 04:32:04;;;;;;;;;;;1.70;99.90;;;;;;5092861;28;19912;-40
2022/12/09 04:34:30;;;;;;;;;;;1.70;99.90;;;;;;5092141;28;19909;-39
2022/12/09 04:36:56;;;;;;;;;;;1.70;99.90;;;;;;5091891;28;20290;-39
2022/12/09 04:39:21;;;;;;;;;;;1.70;99.90;;;;;;5091404;28;19919;-40
2022/12/09 04:41:47;;;;;;;;;;;1.60;99.90;;;;;;5091468;28;19908;-41
2022/12/09 04:44:12;;;;;;;;;;;1.60;99.90;;;;;;5091914;28;20371;-40
2022/12/09 04:46:38;;;;;;;;;;;1.60;99.90;;;;;;5072356;28;19913;-40
2022/12/09 04:49:03;;;;;;;;;;;1.50;99.90;;;;;;5072086;28;19916;-39
2022/12/09 04:51:29;;;;;;;;;;;1.40;99.90;;;;;;5076790;28;19970;-40
2022/12/09 04:53:54;;;;;;;;;;;1.40;99.90;;;;;;5076565;28;20003;-40
2022/12/09 04:56:20;;;;;;;;;;;1.30;99.90;;;;;;5092917;28;20317;-41
2022/12/09 04:58:46;;;;;;;;;;;1.30;99.90;;;;;;5096656;28;20374;-41
2022/12/09 05:01:15;;;;;;;;;;;1.30;99.90;;;;;;5096680;28;20393;-40
2022/12/09 05:03:40;;;;;;;;;;;1.20;99.90;;;;;;5095899;28;19908;-39
2022/12/09 05:06:07;;;;;;;;;;;1.10;99.90;;;;;;5080881;28;19920;-39
2022/12/09 05:08:33;;;;;;;;;;;1.10;99.90;;;;;;5076192;28;20294;-41
2022/12/09 05:10:58;;;;;;;;;;;1.00;99.90;;;;;;5081055;28;19921;-41
2022/12/09 05:13:26;;;;;;;;;;;1.00;99.90;;;;;;5096443;28;19988;-39
2022/12/09 05:15:52;;;;;;;;;;;0.90;99.90;;;;;;5108778;28;19912;-39
2022/12/09 05:18:18;;;;;;;;;;;0.90;99.90;;;;;;5116874;28;19953;-41
2022/12/09 05:20:43;;;;;;;;;;;0.90;99.90;;;;;;5116748;28;20010;-40
2022/12/09 05:23:09;;;;;;;;;;;0.80;99.90;;;;;;5116001;28;19907;-40
2022/12/09 05:25:34;;;;;;;;;;;0.80;99.90;;;;;;5103164;28;20374;-41
2022/12/09 05:28:00;;;;;;;;;;;0.80;99.90;;;;;;5096043;28;19920;-39
2022/12/09 05:30:25;;;;;;;;;;;0.70;99.90;;;;;;5095403;28;20386;-40
2022/12/09 05:32:51;;;;;;;;;;;0.70;99.90;;;;;;5096044;28;19915;-39
2022/12/09 05:35:16;;;;;;;;;;;0.60;99.90;;;;;;5106271;28;19912;-39
2022/12/09 05:37:42;;;;;;;;;;;0.60;99.90;;;;;;5115599;28;19908;-44
2022/12/09 05:40:07;;;;;;;;;;;0.60;99.90;;;;;;5116398;28;19930;-41
2022/12/09 05:42:33;;;;;;;;;;;0.60;99.90;;;;;;5105057;28;19920;-39
2022/12/09 05:44:58;;;;;;;;;;;0.60;99.90;;;;;;5095061;28;19908;-41
2022/12/09 05:47:24;;;;;;;;;;;0.60;99.90;;;;;;5095745;28;19961;-39
2022/12/09 05:49:49;;;;;;;;;;;0.50;99.90;;;;;;5095804;28;19912;-40
2022/12/09 05:52:15;;;;;;;;;;;0.50;99.90;;;;;;5102891;28;20002;-41
2022/12/09 05:54:40;;;;;;;;;;;0.50;99.90;;;;;;5116234;28;19907;-41
2022/12/09 05:57:06;;;;;;;;;;;0.40;99.90;;;;;;5115970;28;20269;-39
2022/12/09 05:59:31;;;;;;;;;;;0.40;99.90;;;;;;5115386;28;19912;-40
2022/12/09 06:01:57;;;;;;;;;;;0.40;99.90;;;;;;5110138;28;19923;-40
2022/12/09 06:04:22;;;;;;;;;;;0.30;99.90;;;;;;5095456;28;20329;-40
2022/12/09 06:06:48;;;;;;;;;;;0.30;99.90;;;;;;5094781;28;19915;-39
2022/12/09 06:09:13;;;;;;;;;;;0.20;99.90;;;;;;5107073;28;19920;-40
2022/12/09 06:11:39;;;;;;;;;;;0.20;99.90;;;;;;5103211;28;20386;-40
2022/12/09 06:14:08;;;;;;;;;;;0.20;99.90;;;;;;5094291;28;19993;-40
2022/12/09 06:16:33;;;;;;;;;;;0.20;99.90;;;;;;5095375;28;19914;-40
2022/12/09 06:18:59;;;;;;;;;;;0.10;99.90;;;;;;5095236;28;19908;-40
2022/12/09 06:21:24;;;;;;;;;;;0.10;99.90;;;;;;5093912;28;19912;-40
2022/12/09 06:23:50;;;;;;;;;;;0.10;99.90;;;;;;5075257;28;19956;-42
2022/12/09 06:26:15;;;;;;;;;;;0.10;99.90;;;;;;5074541;28;19912;-39
2022/12/09 06:28:41;;;;;;;;;;;0.10;99.90;;;;;;5079536;28;19920;-39
2022/12/09 06:31:06;;;;;;;;;;;0.10;99.90;;;;;;5089548;28;19975;-41
2022/12/09 06:33:32;;;;;;;;;;;0.20;99.90;;;;;;5080299;28;19915;-43
2022/12/09 06:36:01;;;;;;;;;;;0.10;99.90;;;;;;5089994;28;19968;-39
2022/12/09 06:38:26;;;;;;;;;;;0.10;99.90;;;;;;5093854;28;20058;-44
2022/12/09 06:40:51;;;;;;;;;;;0.10;99.90;;;;;;5082109;28;19999;-40
2022/12/09 06:43:17;;;;;;;;;;;0.10;99.90;;;;;;5078071;28;19913;-39
2022/12/09 06:45:42;;;;;;;;;;;0.10;99.90;;;;;;5078816;28;19928;-39
2022/12/09 06:48:08;;;;;;;;;;;0.20;99.90;;;;;;5107876;28;19926;-39
2022/12/09 06:50:33;;;;;;;;;;;0.20;99.90;;;;;;5075375;28;19957;-40
2022/12/09 06:52:59;;;;;;;;;;;0.20;99.90;;;;;;5084873;28;19924;-39
2022/12/09 06:55:24;;;;;;;;;;;0.20;99.90;;;;;;5083928;28;20485;-39
2022/12/09 06:57:50;;;;;;;;;;;0.20;99.90;;;;;;5087063;28;19908;-39
2022/12/09 07:00:15;;;;;;;;;;;0.20;99.90;;;;;;5092003;28;19923;-40
2022/12/09 07:02:41;;;;;;;;;;;0.10;99.90;;;;;;5080623;28;20441;-40
2022/12/09 07:05:06;;;;;;;;;;;0.20;99.90;;;;;;5093881;28;19934;-40
2022/12/09 07:07:32;;;;;;;;;;;0.10;99.90;;;;;;5084556;28;19967;-43
2022/12/09 07:10:00;;;;;;;;;;;0.10;99.90;;;;;;5081102;28;19920;-40
2022/12/09 07:12:25;;;;;;;;;;;0.10;99.90;;;;;;5097647;28;19928;-39
2022/12/09 07:14:51;;;;;;;;;;;0.10;99.90;;;;;;5104587;28;20324;-42
2022/12/09 07:17:17;;;;;;;;;;;0.10;99.90;;;;;;5093339;28;19959;-39
2022/12/09 07:19:43;;;;;;;;;;;0.00;99.90;;;;;;5096283;28;20349;-39
2022/12/09 07:22:09;;;;;;;;;;;0.00;99.90;;;;;;5111546;27;20377;-40
2022/12/09 07:24:35;;;;;;;;;;;0.00;99.90;;;;;;5113531;28;19931;-39
2022/12/09 07:27:01;;;;;;;;;;;-0.10;99.90;;;;;;5114335;28;19960;-40
2022/12/09 07:29:26;;;;;;;;;;;-0.20;99.90;;;;;;5113264;28;19920;-40
2022/12/09 07:31:52;;;;;;;;;;;-0.20;99.90;;;;;;5111376;28;19931;-40
2022/12/09 07:34:17;;;;;;;;;;;-0.20;99.90;;;;;;5108222;28;20447;-40
2022/12/09 07:36:43;;;;;;;;;;;-0.20;99.90;;;;;;5103050;28;19916;-41
2022/12/09 07:39:12;;;;;;;;;;;-0.20;99.90;;;;;;5096173;28;19916;-38
2022/12/09 07:41:38;;;;;;;;;;;-0.20;99.90;;;;;;5101358;28;19916;-39
2022/12/09 07:44:04;;;;;;;;;;;-0.20;99.90;;;;;;5104560;28;20275;-39
2022/12/09 07:46:29;;;;;;;;;;;-0.20;99.90;;;;;;5107580;27;19912;-40
2022/12/09 07:48:55;;;;;;;;;;;-0.20;99.90;;;;;;5093468;28;19920;-40
2022/12/09 07:51:21;;;;;;;;;;;-0.20;99.90;;;;;;5092868;28;19908;-39
2022/12/09 07:53:47;;;;;;;;;;;-0.30;99.90;;;;;;5093296;28;19916;-40
2022/12/09 07:56:13;;;;;;;;;;;-0.40;99.90;;;;;;5097403;28;19911;-39
2022/12/09 07:58:39;;;;;;;;;;;-0.30;99.90;;;;;;5101021;27;19920;-40
2022/12/09 08:01:06;;;;;;;;;;;-0.40;99.90;;;;;;5105443;28;19923;-39
2022/12/09 08:03:31;;;;;;;;;;;-0.40;99.90;;;;;;5110487;28;20017;-40
2022/12/09 08:05:57;;;;;;;;;;;-0.40;99.90;;;;;;5112239;28;19930;-40
2022/12/09 08:08:22;;;;;;;;;;;-0.30;99.90;;;;;;5105268;28;19927;-39
2022/12/09 08:10:48;;;;;;;;;;;-0.30;99.90;;;;;;5110649;28;19919;-39
2022/12/09 08:13:14;;;;;;;;;;;-0.30;99.90;;;;;;5111022;28;19958;-40
2022/12/09 08:15:40;;;;;;;;;;;-0.30;99.90;;;;;;5097847;28;19984;-39
2022/12/09 08:18:05;;;;;;;;;;;-0.20;99.90;;;;;;5097169;28;19928;-40
2022/12/09 08:20:31;;;;;;;;;;;-0.20;99.90;;;;;;5132930;27;20271;-39
2022/12/09 08:22:56;;;;;;;;;;;-0.10;99.90;;;;;;5118040;27;20377;-42
2022/12/09 08:25:22;;;;;;;;;;;0.00;99.90;;;;;;5113110;28;19915;-39
2022/12/09 08:27:48;;;;;;;;;;;0.00;99.90;;;;;;5102975;28;19923;-42
2022/12/09 08:30:13;;;;;;;;;;;0.10;99.90;;;;;;5099392;28;19912;-40
2022/12/09 08:32:39;;;;;;;;;;;0.10;99.90;;;;;;5127027;27;19908;-42
2022/12/09 08:35:04;;;;;;;;;;;0.10;99.90;;;;;;5108018;28;20287;-40
2022/12/09 08:37:30;;;;;;;;;;;0.10;99.90;;;;;;5133630;27;19911;-42
2022/12/09 08:39:55;;;;;;;;;;;0.10;99.90;;;;;;5132885;27;19908;-41
2022/12/09 08:42:21;;;;;;;;;;;0.10;99.90;;;;;;5114308;28;19908;-39
2022/12/09 08:44:46;;;;;;;;;;;0.20;99.90;;;;;;5113126;28;19914;-40
2022/12/09 08:47:12;;;;;;;;;;;0.20;99.90;;;;;;5115587;28;19911;-43
2022/12/09 08:49:37;;;;;;;;;;;0.20;99.90;;;;;;5099116;28;19924;-39
2022/12/09 08:52:03;;;;;;;;;;;0.20;99.90;;;;;;5092186;28;19920;-40
2022/12/09 08:54:28;;;;;;;;;;;0.20;99.90;;;;;;5091381;28;20264;-41
2022/12/09 08:56:54;;;;;;;;;;;0.20;99.90;;;;;;5092583;28;19909;-44
2022/12/09 08:59:20;;;;;;;;;;;0.20;99.90;;;;;;5107825;28;19951;-39
2022/12/09 09:01:46;;;;;;;;;;;0.30;99.90;;;;;;5112039;28;20366;-39
2022/12/09 09:04:13;;;;;;;;;;;0.30;99.90;;;;;;5112843;28;19914;-40
2022/12/09 09:06:40;;;;;;;;;;;0.30;99.90;;;;;;5090467;28;20270;-39
2022/12/09 09:09:06;;;;;;;;;;;0.40;99.90;;;;;;5095620;28;20405;-39
2022/12/09 09:11:32;;;;;;;;;;;0.40;99.90;;;;;;5097005;28;19920;-39
2022/12/09 09:13:57;;;;;;;;;;;0.50;99.90;;;;;;5092279;28;19954;-41
2022/12/09 09:16:25;;;;;;;;;;;0.60;99.90;;;;;;5093255;28;20077;-39
2022/12/09 09:18:51;;;;;;;;;;;0.60;99.90;;;;;;5101819;28;19909;-43
2022/12/09 09:21:17;;;;;;;;;;;0.80;99.90;;;;;;5093137;28;19919;-42
2022/12/09 09:23:43;;;;;;;;;;;0.80;99.90;;;;;;5098489;28;19970;-39
2022/12/09 09:26:10;;;;;;;;;;;0.90;99.90;;;;;;5133995;28;20350;-40
2022/12/09 09:28:35;;;;;;;;;;;1.00;99.90;;;;;;5133972;28;19959;-39
2022/12/09 09:31:02;;;;;;;;;;;1.10;99.90;;;;;;5133375;28;20323;-39
2022/12/09 09:33:28;;;;;;;;;;;1.20;99.90;;;;;;5133886;28;20005;-40
2022/12/09 09:35:57;;;;;;;;;;;1.30;99.90;;;;;;5135508;27;20361;-39
2022/12/09 09:38:22;;;;;;;;;;;1.40;99.90;;;;;;5137535;27;20433;-39
2022/12/09 09:40:48;;;;;;;;;;;1.40;99.90;;;;;;5116425;27;19934;-39
2022/12/09 09:43:15;;;;;;;;;;;1.50;99.90;;;;;;5112789;27;19912;-40
2022/12/09 09:45:41;;;;;;;;;;;1.60;99.90;;;;;;5137355;27;19913;-40
2022/12/09 09:48:10;;;;;;;;;;;1.60;99.90;;;;;;5117473;27;19969;-41
2022/12/09 09:50:51;;;;;;;;;;;1.60;99.90;;;;;;5115156;28;19926;-40
2022/12/09 09:53:22;;;;;;;;;;;1.60;99.90;;;;;;5116075;28;19908;-39
2022/12/09 09:55:51;;;;;;;;;;;1.70;99.90;;;;;;5116324;28;19955;-40
2022/12/09 09:58:23;;;;;;;;;;;1.70;99.90;;;;;;5114822;28;20274;-39
2022/12/09 10:01:07;;;;;;;;;;;1.60;99.90;;;;;;5095542;28;19934;-42
2022/12/09 10:03:41;;;;;;;;;;;1.70;99.90;;;;;;5115901;28;19935;-38
2022/12/09 10:06:30;;;;;;;;;;;1.70;99.90;;;;;;5108796;28;19961;-40
2022/12/09 10:08:57;;;;;;;;;;;1.70;99.90;;;;;;5061415;28;19946;-40
2022/12/09 10:11:52;;;;;;;;;;;1.80;99.90;;;;;;5114570;28;19920;-40
2022/12/09 10:14:23;;;;;;;;;;;1.80;99.90;;;;;;5048517;28;19919;-39
2022/12/09 10:17:12;;;;;;;;;;;1.80;99.90;;;;;;5123135;27;19912;-40
2022/12/09 10:19:40;;;;;;;;;;;1.80;99.90;;;;;;5093565;28;19918;-40
2022/12/09 10:22:19;;;;;;;;;;;1.80;99.90;;;;;;5102444;27;20003;-40
2022/12/09 10:24:56;;;;;;;;;;;1.80;99.90;;;;;;5103742;28;20007;-39
2022/12/09 10:27:36;;;;;;;;;;;1.80;99.90;;;;;;5106220;27;19966;-39
2022/12/09 10:30:04;;;;;;;;;;;1.90;99.90;;;;;;5095096;28;19912;-40
2022/12/09 10:32:32;;;;;;;;;;;1.90;99.90;;;;;;5102813;28;19912;-39
2022/12/09 10:34:58;;;;;;;;;;;1.80;99.90;;;;;;5113464;28;19919;-39
2022/12/09 10:37:26;;;;;;;;;;;1.70;99.90;;;;;;5108596;28;19912;-42
2022/12/09 10:40:14;;;;;;;;;;;1.60;99.90;;;;;;5097438;28;19954;-43
2022/12/09 10:45:27;;;;;;;;;;;1.60;99.90;;;;;;5104142;28;20405;-40
2022/12/09 10:47:53;;;;;;;;;;;1.60;99.90;;;;;;5129077;27;19911;-41
2022/12/09 10:50:27;;;;;;;;;;;1.60;99.90;;;;;;5098713;27;20366;-43
2022/12/09 10:52:53;;;;;;;;;;;1.60;99.90;;;;;;5094623;28;19915;-40
2022/12/09 10:55:25;;;;;;;;;;;1.60;99.90;;;;;;5108321;28;19919;-39
2022/12/09 10:58:07;;;;;;;;;;;1.70;99.90;;;;;;5111533;28;19920;-39
2022/12/09 11:00:33;;;;;;;;;;;1.70;99.90;;;;;;5093849;28;19908;-40
2022/12/09 11:02:58;;;;;;;;;;;1.80;99.90;;;;;;5108263;28;19917;-43
2022/12/09 11:05:26;;;;;;;;;;;1.80;99.90;;;;;;5097063;28;20353;-40
2022/12/09 11:07:52;;;;;;;;;;;1.80;99.90;;;;;;5133050;27;20350;-40
2022/12/09 11:10:20;;;;;;;;;;;1.90;99.90;;;;;;5115529;27;20374;-39
2022/12/09 11:12:49;;;;;;;;;;;1.90;99.90;;;;;;5103259;28;19908;-39
2022/12/09 11:15:25;;;;;;;;;;;2.00;99.90;;;;;;5099448;28;19981;-39
2022/12/09 11:17:59;;;;;;;;;;;2.00;99.90;;;;;;5099818;28;19912;-39
2022/12/09 11:20:26;;;;;;;;;;;2.00;99.90;;;;;;5094269;28;19912;-39
2022/12/09 11:22:58;;;;;;;;;;;2.00;99.90;;;;;;5112013;27;20323;-39
2022/12/09 11:25:26;;;;;;;;;;;2.00;99.90;;;;;;5124327;27;20307;-39
2022/12/09 11:27:54;;;;;;;;;;;2.00;99.90;;;;;;5108535;28;19923;-39
2022/12/09 11:30:25;;;;;;;;;;;2.00;99.90;;;;;;5112128;28;20373;-40
2022/12/09 11:32:53;;;;;;;;;;;2.10;99.90;;;;;;5111223;28;19934;-38
2022/12/09 11:35:19;;;;;;;;;;;2.10;99.90;;;;;;5112859;28;19912;-40
2022/12/09 11:37:46;;;;;;;;;;;2.10;99.90;;;;;;5111628;28;19960;-40
2022/12/09 11:40:14;;;;;;;;;;;2.10;99.90;;;;;;5111608;28;20395;-40
2022/12/09 11:42:40;;;;;;;;;;;2.10;99.90;;;;;;5113834;27;20014;-42
2022/12/09 11:45:16;;;;;;;;;;;2.10;99.90;;;;;;5097670;27;20384;-39
2022/12/09 11:47:45;;;;;;;;;;;2.10;99.90;;;;;;5125320;27;19912;-40
2022/12/09 11:50:16;;;;;;;;;;;2.10;99.90;;;;;;5094268;28;19920;-42
2022/12/09 11:52:41;;;;;;;;;;;2.10;99.90;;;;;;5096039;28;19943;-40
2022/12/09 11:55:10;;;;;;;;;;;2.10;99.90;;;;;;5101678;27;20293;-39
2022/12/09 11:57:43;;;;;;;;;;;2.20;99.90;;;;;;5098617;28;20019;-41
2022/12/09 12:00:17;;;;;;;;;;;2.20;99.90;;;;;;5100471;27;20006;-42
2022/12/09 12:02:46;;;;;;;;;;;2.20;99.90;;;;;;5088995;28;19908;-41
2022/12/09 12:05:19;;;;;;;;;;;2.20;99.90;;;;;;5087661;28;20351;-39
2022/12/09 12:07:57;;;;;;;;;;;2.10;99.90;;;;;;5088753;28;19912;-39
2022/12/09 12:10:25;;;;;;;;;;;2.10;99.90;;;;;;5092177;28;20267;-40
2022/12/09 12:12:59;;;;;;;;;;;2.20;99.90;;;;;;5128219;27;19911;-40
2022/12/09 12:15:33;;;;;;;;;;;2.20;99.90;;;;;;5114352;28;19912;-40
2022/12/09 12:18:01;;;;;;;;;;;2.20;99.90;;;;;;5108901;28;19948;-42
2022/12/09 12:20:47;;;;;;;;;;;2.30;99.90;;;;;;5099703;28;19926;-40
2022/12/09 12:23:18;;;;;;;;;;;2.30;99.90;;;;;;5092227;28;19939;-39
2022/12/09 12:25:50;;;;;;;;;;;2.40;99.90;;;;;;5108500;28;20452;-41
2022/12/09 12:28:34;;;;;;;;;;;2.50;99.90;;;;;;5099101;28;19955;-40
2022/12/09 12:31:15;;;;;;;;;;;2.60;99.90;;;;;;5094220;28;19997;-40
2022/12/09 12:33:59;;;;;;;;;;;2.60;99.90;;;;;;5096788;28;19912;-41
2022/12/09 12:36:27;;;;;;;;;;;2.60;99.90;;;;;;5093546;28;19911;-40
2022/12/09 12:39:12;;;;;;;;;;;2.60;99.90;;;;;;5101160;28;19924;-40
2022/12/09 12:41:44;;;;;;;;;;;2.60;99.90;;;;;;5097507;28;19990;-40
2022/12/09 12:47:27;;;;;;;;;;;2.60;99.90;;;;;;5095174;28;20366;-42
2022/12/09 12:50:00;;;;;;;;;;;2.70;99.90;;;;;;5112754;28;20338;-40
2022/12/09 12:52:25;;;;;;;;;;;2.70;99.90;;;;;;5112786;28;19908;-41
2022/12/09 12:54:53;;;;;;;;;;;2.80;99.90;;;;;;5098227;28;20350;-40
2022/12/09 12:57:32;;;;;;;;;;;2.90;99.90;;;;;;5107384;28;19908;-40
2022/12/09 13:00:10;;;;;;;;;;;2.90;99.90;;;;;;5132599;28;20670;-41
2022/12/09 13:02:40;;;;;;;;;;;2.90;99.90;;;;;;5121961;28;19912;-41
2022/12/09 13:05:20;;;;;;;;;;;2.90;99.90;;;;;;5112968;28;19908;-40
2022/12/09 13:08:04;;;;;;;;;;;3.00;99.90;;;;;;5112006;28;19919;-40
2022/12/09 13:10:56;;;;;;;;;;;2.90;99.90;;;;;;5112906;28;19923;-39
2022/12/09 13:13:27;;;;;;;;;;;2.90;99.90;;;;;;5092399;28;20256;-40
2022/12/09 13:15:54;;;;;;;;;;;2.90;99.90;;;;;;5095902;28;20166;-40
2022/12/09 13:18:25;;;;;;;;;;;2.90;99.90;;;;;;5096588;28;20026;-38
2022/12/09 13:20:52;;;;;;;;;;;2.90;99.90;;;;;;5096284;28;19912;-41
2022/12/09 13:23:18;;;;;;;;;;;2.90;99.90;;;;;;5109237;28;20354;-39
2022/12/09 13:25:43;;;;;;;;;;;2.90;99.90;;;;;;5113952;28;19957;-38
2022/12/09 13:28:15;;;;;;;;;;;2.80;99.90;;;;;;5115939;28;20414;-39
2022/12/09 13:30:59;;;;;;;;;;;2.80;99.90;;;;;;5116212;28;19919;-37
2022/12/09 13:33:43;;;;;;;;;;;2.80;99.90;;;;;;5116642;28;19951;-43
2022/12/09 13:36:31;;;;;;;;;;;2.80;99.90;;;;;;5099818;28;19912;-39
2022/12/09 13:38:57;;;;;;;;;;;2.80;99.90;;;;;;5084864;28;20247;-39
2022/12/09 13:41:26;;;;;;;;;;;2.90;99.90;;;;;;5096054;28;19912;-40
2022/12/09 13:43:52;;;;;;;;;;;2.90;99.90;;;;;;5109852;28;19919;-42
2022/12/09 13:46:21;;;;;;;;;;;2.90;99.90;;;;;;5106332;28;19947;-39
2022/12/09 13:48:47;;;;;;;;;;;2.90;99.90;;;;;;5095551;28;19927;-39
2022/12/09 13:51:13;;;;;;;;;;;2.90;99.90;;;;;;5096230;28;19913;-43
2022/12/09 13:53:47;;;;;;;;;;;2.90;99.90;;;;;;5095577;28;20101;-44
2022/12/09 13:56:15;;;;;;;;;;;2.90;99.90;;;;;;5112622;28;19919;-52
2022/12/09 13:58:48;;;;;;;;;;;2.90;99.90;;;;;;5109904;28;20072;-40
2022/12/09 14:01:14;;;;;;;;;;;2.90;99.90;;;;;;5112421;28;19989;-40
2022/12/09 14:03:52;;;;;;;;;;;3.00;99.90;;;;;;5107253;27;19951;-41
2022/12/09 14:06:20;;;;;;;;;;;3.00;99.90;;;;;;5116765;27;20432;-41
2022/12/09 14:08:49;;;;;;;;;;;3.10;99.90;;;;;;5099151;28;19924;-40
2022/12/09 14:11:33;;;;;;;;;;;3.00;99.90;;;;;;5106384;28;19926;-40
2022/12/09 14:14:17;;;;;;;;;;;3.00;99.90;;;;;;5106736;28;19916;-40
2022/12/09 14:16:42;;;;;;;;;;;3.10;99.90;;;;;;5107556;28;19920;-40
2022/12/09 14:19:30;;;;;;;;;;;3.10;99.90;;;;;;5103650;27;19920;-39
2022/12/09 14:22:15;;;;;;;;;;;3.10;99.90;;;;;;5108341;27;19919;-40
2022/12/09 14:24:41;;;;;;;;;;;3.00;99.90;;;;;;5110795;28;19922;-43
2022/12/09 14:27:12;;;;;;;;;;;2.90;99.90;;;;;;5105685;28;20011;-40
2022/12/09 14:29:43;;;;;;;;;;;2.90;99.90;;;;;;5095443;28;19916;-42
2022/12/09 14:32:27;;;;;;;;;;;2.80;99.90;;;;;;5097362;28;19911;-40
2022/12/09 14:35:08;;;;;;;;;;;2.80;99.90;;;;;;5116226;27;19919;-39
2022/12/09 14:37:42;;;;;;;;;;;2.80;99.90;;;;;;5124625;27;20006;-41
2022/12/09 14:40:14;;;;;;;;;;;2.70;99.90;;;;;;5120519;27;20006;-41
2022/12/09 14:42:40;;;;;;;;;;;2.60;99.90;;;;;;5115146;28;19915;-39